sensor_id;sensor_type;location;lat;lon;timestamp;P1;durP1;ratioP1;P2;durP2;ratioP2
37309;SDS011;23195;47.744;7.358;2022-11-13T00:03:48;43.93;;;12.50;;
37309;SDS011;23195;47.744;7.358;2022-11-13T00:06:15;32.67;;;11.37;;
37309;SDS011;23195;47.744;7.358;2022-11-13T00:08:41;32.40;;;11.47;;
37309;SDS011;23195;47.744;7.358;2022-11-13T00:11:08;41.03;;;11.67;;
37309;SDS011;23195;47.744;7.358;2022-11-13T00:13:39;33.47;;;13.17;;
37309;SDS011;23195;47.744;7.358;2022-11-13T00:16:06;38.93;;;12.63;;
37309;SDS011;23195;47.744;7.358;2022-11-13T00:18:34;34.30;;;13.53;;
37309;SDS011;23195;47.744;7.358;2022-11-13T00:21:05;34.07;;;13.67;;
37309;SDS011;23195;47.744;7.358;2022-11-13T00:23:33;34.13;;;12.50;;
37309;SDS011;23195;47.744;7.358;2022-11-13T00:26:04;31.30;;;12.80;;
37309;SDS011;23195;47.744;7.358;2022-11-13T00:28:31;39.63;;;14.67;;
37309;SDS011;23195;47.744;7.358;2022-11-13T00:30:57;30.27;;;14.37;;
37309;SDS011;23195;47.744;7.358;2022-11-13T00:33:24;33.50;;;14.90;;
37309;SDS011;23195;47.744;7.358;2022-11-13T00:35:50;33.83;;;14.93;;
37309;SDS011;23195;47.744;7.358;2022-11-13T00:38:16;32.53;;;15.47;;
37309;SDS011;23195;47.744;7.358;2022-11-13T00:40:41;32.73;;;14.90;;
37309;SDS011;23195;47.744;7.358;2022-11-13T00:43:07;35.77;;;15.60;;
37309;SDS011;23195;47.744;7.358;2022-11-13T00:45:33;35.87;;;14.77;;
37309;SDS011;23195;47.744;7.358;2022-11-13T00:47:59;38.60;;;16.23;;
37309;SDS011;23195;47.744;7.358;2022-11-13T00:50:24;32.70;;;14.30;;
37309;SDS011;23195;47.744;7.358;2022-11-13T00:52:50;37.27;;;15.33;;
37309;SDS011;23195;47.744;7.358;2022-11-13T00:55:16;35.53;;;15.00;;
37309;SDS011;23195;47.744;7.358;2022-11-13T00:57:42;39.90;;;16.37;;
37309;SDS011;23195;47.744;7.358;2022-11-13T01:00:08;40.57;;;16.73;;
37309;SDS011;23195;47.744;7.358;2022-11-13T01:02:34;34.70;;;14.23;;
37309;SDS011;23195;47.744;7.358;2022-11-13T01:05:00;34.93;;;14.03;;
37309;SDS011;23195;47.744;7.358;2022-11-13T01:07:26;31.43;;;14.63;;
37309;SDS011;23195;47.744;7.358;2022-11-13T01:09:52;34.60;;;14.40;;
37309;SDS011;23195;47.744;7.358;2022-11-13T01:12:18;37.57;;;14.30;;
37309;SDS011;23195;47.744;7.358;2022-11-13T01:14:43;36.37;;;14.37;;
37309;SDS011;23195;47.744;7.358;2022-11-13T01:17:09;34.93;;;14.00;;
37309;SDS011;23195;47.744;7.358;2022-11-13T01:19:36;32.80;;;14.10;;
37309;SDS011;23195;47.744;7.358;2022-11-13T01:22:02;32.17;;;14.17;;
37309;SDS011;23195;47.744;7.358;2022-11-13T01:24:29;36.60;;;15.47;;
37309;SDS011;23195;47.744;7.358;2022-11-13T01:26:55;38.70;;;14.30;;
37309;SDS011;23195;47.744;7.358;2022-11-13T01:29:21;39.77;;;15.43;;
37309;SDS011;23195;47.744;7.358;2022-11-13T01:31:47;44.70;;;15.03;;
37309;SDS011;23195;47.744;7.358;2022-11-13T01:34:12;35.00;;;14.60;;
37309;SDS011;23195;47.744;7.358;2022-11-13T01:36:38;37.33;;;13.30;;
37309;SDS011;23195;47.744;7.358;2022-11-13T01:39:04;35.30;;;13.63;;
37309;SDS011;23195;47.744;7.358;2022-11-13T01:41:31;48.23;;;15.20;;
37309;SDS011;23195;47.744;7.358;2022-11-13T01:43:58;34.00;;;12.83;;
37309;SDS011;23195;47.744;7.358;2022-11-13T01:49:01;36.50;;;13.50;;
37309;SDS011;23195;47.744;7.358;2022-11-13T01:51:35;34.23;;;12.80;;
37309;SDS011;23195;47.744;7.358;2022-11-13T01:54:06;32.13;;;12.70;;
37309;SDS011;23195;47.744;7.358;2022-11-13T01:56:35;37.30;;;11.77;;
37309;SDS011;23195;47.744;7.358;2022-11-13T01:59:09;35.60;;;10.87;;
37309;SDS011;23195;47.744;7.358;2022-11-13T02:01:56;38.97;;;11.43;;
37309;SDS011;23195;47.744;7.358;2022-11-13T02:04:22;36.03;;;12.30;;
37309;SDS011;23195;47.744;7.358;2022-11-13T02:07:09;46.27;;;11.73;;
37309;SDS011;23195;47.744;7.358;2022-11-13T02:09:39;30.60;;;11.80;;
37309;SDS011;23195;47.744;7.358;2022-11-13T02:12:11;38.80;;;12.80;;
37309;SDS011;23195;47.744;7.358;2022-11-13T02:14:40;44.77;;;13.80;;
37309;SDS011;23195;47.744;7.358;2022-11-13T02:17:08;39.23;;;13.07;;
37309;SDS011;23195;47.744;7.358;2022-11-13T02:19:40;38.63;;;12.73;;
37309;SDS011;23195;47.744;7.358;2022-11-13T02:24:53;42.87;;;15.17;;
37309;SDS011;23195;47.744;7.358;2022-11-13T02:27:27;48.53;;;17.83;;
37309;SDS011;23195;47.744;7.358;2022-11-13T02:29:58;47.47;;;14.73;;
37309;SDS011;23195;47.744;7.358;2022-11-13T02:32:34;37.43;;;15.60;;
37309;SDS011;23195;47.744;7.358;2022-11-13T02:35:00;39.00;;;15.87;;
37309;SDS011;23195;47.744;7.358;2022-11-13T02:37:25;39.47;;;15.00;;
37309;SDS011;23195;47.744;7.358;2022-11-13T02:39:51;44.00;;;15.73;;
37309;SDS011;23195;47.744;7.358;2022-11-13T02:42:17;44.87;;;16.63;;
37309;SDS011;23195;47.744;7.358;2022-11-13T02:44:43;39.77;;;15.50;;
37309;SDS011;23195;47.744;7.358;2022-11-13T02:47:08;42.03;;;17.50;;
37309;SDS011;23195;47.744;7.358;2022-11-13T02:49:34;42.27;;;16.77;;
37309;SDS011;23195;47.744;7.358;2022-11-13T02:52:00;46.07;;;16.93;;
37309;SDS011;23195;47.744;7.358;2022-11-13T02:54:25;41.30;;;16.40;;
37309;SDS011;23195;47.744;7.358;2022-11-13T02:56:51;39.47;;;15.67;;
37309;SDS011;23195;47.744;7.358;2022-11-13T02:59:17;43.90;;;16.17;;
37309;SDS011;23195;47.744;7.358;2022-11-13T03:01:42;40.13;;;16.13;;
37309;SDS011;23195;47.744;7.358;2022-11-13T03:04:08;42.23;;;17.30;;
37309;SDS011;23195;47.744;7.358;2022-11-13T03:06:34;33.73;;;14.70;;
37309;SDS011;23195;47.744;7.358;2022-11-13T03:08:59;35.67;;;14.77;;
37309;SDS011;23195;47.744;7.358;2022-11-13T03:11:25;35.53;;;14.37;;
37309;SDS011;23195;47.744;7.358;2022-11-13T03:13:51;37.93;;;15.00;;
37309;SDS011;23195;47.744;7.358;2022-11-13T03:16:17;35.07;;;14.70;;
37309;SDS011;23195;47.744;7.358;2022-11-13T03:18:43;35.10;;;14.97;;
37309;SDS011;23195;47.744;7.358;2022-11-13T03:21:10;35.50;;;15.63;;
37309;SDS011;23195;47.744;7.358;2022-11-13T03:23:37;33.83;;;13.83;;
37309;SDS011;23195;47.744;7.358;2022-11-13T03:26:08;30.00;;;14.13;;
37309;SDS011;23195;47.744;7.358;2022-11-13T03:28:35;33.83;;;14.57;;
37309;SDS011;23195;47.744;7.358;2022-11-13T03:31:01;27.13;;;12.80;;
37309;SDS011;23195;47.744;7.358;2022-11-13T03:33:27;26.37;;;11.60;;
37309;SDS011;23195;47.744;7.358;2022-11-13T03:35:53;27.63;;;11.87;;
37309;SDS011;23195;47.744;7.358;2022-11-13T03:38:19;26.53;;;11.87;;
37309;SDS011;23195;47.744;7.358;2022-11-13T03:40:45;26.90;;;11.23;;
37309;SDS011;23195;47.744;7.358;2022-11-13T03:43:11;29.47;;;12.90;;
37309;SDS011;23195;47.744;7.358;2022-11-13T03:45:37;27.63;;;12.60;;
37309;SDS011;23195;47.744;7.358;2022-11-13T03:48:03;31.80;;;13.10;;
37309;SDS011;23195;47.744;7.358;2022-11-13T03:50:29;31.33;;;12.70;;
37309;SDS011;23195;47.744;7.358;2022-11-13T03:52:55;31.40;;;12.80;;
37309;SDS011;23195;47.744;7.358;2022-11-13T03:55:20;26.93;;;11.57;;
37309;SDS011;23195;47.744;7.358;2022-11-13T03:57:46;25.27;;;10.53;;
37309;SDS011;23195;47.744;7.358;2022-11-13T04:00:12;26.00;;;10.50;;
37309;SDS011;23195;47.744;7.358;2022-11-13T04:02:38;22.63;;;9.97;;
37309;SDS011;23195;47.744;7.358;2022-11-13T04:05:06;24.83;;;10.23;;
37309;SDS011;23195;47.744;7.358;2022-11-13T04:07:32;24.40;;;9.70;;
37309;SDS011;23195;47.744;7.358;2022-11-13T04:09:58;21.77;;;9.63;;
37309;SDS011;23195;47.744;7.358;2022-11-13T04:12:24;22.17;;;9.87;;
37309;SDS011;23195;47.744;7.358;2022-11-13T04:14:49;23.47;;;9.90;;
37309;SDS011;23195;47.744;7.358;2022-11-13T04:17:18;25.80;;;10.03;;
37309;SDS011;23195;47.744;7.358;2022-11-13T04:19:44;21.93;;;9.97;;
37309;SDS011;23195;47.744;7.358;2022-11-13T04:22:09;26.30;;;11.17;;
37309;SDS011;23195;47.744;7.358;2022-11-13T04:24:35;30.50;;;10.90;;
37309;SDS011;23195;47.744;7.358;2022-11-13T04:27:01;25.03;;;10.93;;
37309;SDS011;23195;47.744;7.358;2022-11-13T04:29:28;27.37;;;10.50;;
37309;SDS011;23195;47.744;7.358;2022-11-13T04:31:53;25.20;;;10.43;;
37309;SDS011;23195;47.744;7.358;2022-11-13T04:34:19;26.67;;;10.67;;
37309;SDS011;23195;47.744;7.358;2022-11-13T04:36:45;24.60;;;10.47;;
37309;SDS011;23195;47.744;7.358;2022-11-13T04:39:11;25.57;;;10.50;;
37309;SDS011;23195;47.744;7.358;2022-11-13T04:41:39;23.97;;;9.90;;
37309;SDS011;23195;47.744;7.358;2022-11-13T04:44:27;24.70;;;9.47;;
37309;SDS011;23195;47.744;7.358;2022-11-13T04:46:53;20.33;;;8.90;;
37309;SDS011;23195;47.744;7.358;2022-11-13T04:49:19;22.13;;;8.90;;
37309;SDS011;23195;47.744;7.358;2022-11-13T04:51:44;19.67;;;8.40;;
37309;SDS011;23195;47.744;7.358;2022-11-13T04:54:10;20.50;;;9.60;;
37309;SDS011;23195;47.744;7.358;2022-11-13T04:56:36;21.27;;;8.37;;
37309;SDS011;23195;47.744;7.358;2022-11-13T04:59:01;18.70;;;7.63;;
37309;SDS011;23195;47.744;7.358;2022-11-13T05:01:27;17.80;;;8.10;;
37309;SDS011;23195;47.744;7.358;2022-11-13T05:03:56;16.93;;;7.87;;
37309;SDS011;23195;47.744;7.358;2022-11-13T05:06:22;19.03;;;8.10;;
37309;SDS011;23195;47.744;7.358;2022-11-13T05:08:47;17.33;;;7.90;;
37309;SDS011;23195;47.744;7.358;2022-11-13T05:11:13;17.33;;;8.17;;
37309;SDS011;23195;47.744;7.358;2022-11-13T05:13:39;14.50;;;7.10;;
37309;SDS011;23195;47.744;7.358;2022-11-13T05:16:06;18.97;;;7.53;;
37309;SDS011;23195;47.744;7.358;2022-11-13T05:18:36;15.10;;;6.73;;
37309;SDS011;23195;47.744;7.358;2022-11-13T05:21:03;16.13;;;7.03;;
37309;SDS011;23195;47.744;7.358;2022-11-13T05:23:31;15.10;;;7.07;;
37309;SDS011;23195;47.744;7.358;2022-11-13T05:26:01;15.60;;;6.73;;
37309;SDS011;23195;47.744;7.358;2022-11-13T05:28:28;19.10;;;7.80;;
37309;SDS011;23195;47.744;7.358;2022-11-13T05:31:01;18.50;;;7.63;;
37309;SDS011;23195;47.744;7.358;2022-11-13T05:33:34;12.90;;;6.57;;
37309;SDS011;23195;47.744;7.358;2022-11-13T05:36:02;14.20;;;6.90;;
37309;SDS011;23195;47.744;7.358;2022-11-13T05:38:29;15.17;;;7.40;;
37309;SDS011;23195;47.744;7.358;2022-11-13T05:41:02;13.07;;;6.10;;
37309;SDS011;23195;47.744;7.358;2022-11-13T05:43:29;12.00;;;6.77;;
37309;SDS011;23195;47.744;7.358;2022-11-13T05:46:06;16.53;;;7.07;;
37309;SDS011;23195;47.744;7.358;2022-11-13T05:48:37;15.93;;;6.27;;
37309;SDS011;23195;47.744;7.358;2022-11-13T05:51:04;17.20;;;6.87;;
37309;SDS011;23195;47.744;7.358;2022-11-13T05:53:38;16.10;;;7.33;;
37309;SDS011;23195;47.744;7.358;2022-11-13T05:56:06;15.00;;;6.80;;
37309;SDS011;23195;47.744;7.358;2022-11-13T05:58:35;14.67;;;7.27;;
37309;SDS011;23195;47.744;7.358;2022-11-13T06:01:08;14.87;;;7.27;;
37309;SDS011;23195;47.744;7.358;2022-11-13T06:03:39;16.63;;;7.93;;
37309;SDS011;23195;47.744;7.358;2022-11-13T06:06:06;14.73;;;7.10;;
37309;SDS011;23195;47.744;7.358;2022-11-13T06:08:33;15.13;;;7.17;;
37309;SDS011;23195;47.744;7.358;2022-11-13T06:10:59;15.43;;;6.10;;
37309;SDS011;23195;47.744;7.358;2022-11-13T06:13:27;10.30;;;6.10;;
37309;SDS011;23195;47.744;7.358;2022-11-13T06:16:01;12.97;;;6.47;;
37309;SDS011;23195;47.744;7.358;2022-11-13T06:18:32;12.63;;;6.17;;
37309;SDS011;23195;47.744;7.358;2022-11-13T06:21:02;11.57;;;6.50;;
37309;SDS011;23195;47.744;7.358;2022-11-13T06:23:30;15.50;;;7.00;;
37309;SDS011;23195;47.744;7.358;2022-11-13T06:26:02;16.27;;;7.00;;
37309;SDS011;23195;47.744;7.358;2022-11-13T06:28:29;13.47;;;6.70;;
37309;SDS011;23195;47.744;7.358;2022-11-13T06:31:01;17.67;;;7.53;;
37309;SDS011;23195;47.744;7.358;2022-11-13T06:33:36;16.20;;;6.97;;
37309;SDS011;23195;47.744;7.358;2022-11-13T06:36:03;16.70;;;7.40;;
37309;SDS011;23195;47.744;7.358;2022-11-13T06:38:31;13.07;;;6.93;;
37309;SDS011;23195;47.744;7.358;2022-11-13T06:40:59;14.57;;;6.73;;
37309;SDS011;23195;47.744;7.358;2022-11-13T06:43:26;13.43;;;6.53;;
37309;SDS011;23195;47.744;7.358;2022-11-13T06:45:53;15.07;;;7.57;;
37309;SDS011;23195;47.744;7.358;2022-11-13T06:48:19;15.73;;;7.17;;
37309;SDS011;23195;47.744;7.358;2022-11-13T06:50:48;12.97;;;7.20;;
37309;SDS011;23195;47.744;7.358;2022-11-13T06:53:18;13.77;;;7.00;;
37309;SDS011;23195;47.744;7.358;2022-11-13T06:55:48;13.27;;;7.23;;
37309;SDS011;23195;47.744;7.358;2022-11-13T06:58:14;14.33;;;7.80;;
37309;SDS011;23195;47.744;7.358;2022-11-13T07:00:41;12.10;;;6.90;;
37309;SDS011;23195;47.744;7.358;2022-11-13T07:03:18;17.13;;;6.63;;
37309;SDS011;23195;47.744;7.358;2022-11-13T07:05:45;14.63;;;6.67;;
37309;SDS011;23195;47.744;7.358;2022-11-13T07:08:12;16.60;;;7.33;;
37309;SDS011;23195;47.744;7.358;2022-11-13T07:10:38;15.20;;;7.40;;
37309;SDS011;23195;47.744;7.358;2022-11-13T07:13:05;11.73;;;6.47;;
37309;SDS011;23195;47.744;7.358;2022-11-13T07:15:32;15.20;;;6.33;;
37309;SDS011;23195;47.744;7.358;2022-11-13T07:17:59;13.53;;;6.30;;
37309;SDS011;23195;47.744;7.358;2022-11-13T07:20:28;13.00;;;7.03;;
37309;SDS011;23195;47.744;7.358;2022-11-13T07:22:55;15.50;;;6.30;;
37309;SDS011;23195;47.744;7.358;2022-11-13T07:25:21;15.53;;;6.60;;
37309;SDS011;23195;47.744;7.358;2022-11-13T07:27:47;11.57;;;6.53;;
37309;SDS011;23195;47.744;7.358;2022-11-13T07:30:13;11.60;;;6.40;;
37309;SDS011;23195;47.744;7.358;2022-11-13T07:32:39;13.13;;;6.37;;
37309;SDS011;23195;47.744;7.358;2022-11-13T07:35:06;12.20;;;6.60;;
37309;SDS011;23195;47.744;7.358;2022-11-13T07:37:32;13.80;;;6.73;;
37309;SDS011;23195;47.744;7.358;2022-11-13T07:39:58;15.30;;;6.77;;
37309;SDS011;23195;47.744;7.358;2022-11-13T07:42:24;11.77;;;6.37;;
37309;SDS011;23195;47.744;7.358;2022-11-13T07:44:49;13.53;;;6.23;;
37309;SDS011;23195;47.744;7.358;2022-11-13T07:47:15;12.83;;;6.60;;
37309;SDS011;23195;47.744;7.358;2022-11-13T07:49:41;15.60;;;7.77;;
37309;SDS011;23195;47.744;7.358;2022-11-13T07:52:06;13.07;;;6.80;;
37309;SDS011;23195;47.744;7.358;2022-11-13T07:54:32;13.93;;;6.73;;
37309;SDS011;23195;47.744;7.358;2022-11-13T07:56:58;14.23;;;7.13;;
37309;SDS011;23195;47.744;7.358;2022-11-13T07:59:24;14.90;;;7.07;;
37309;SDS011;23195;47.744;7.358;2022-11-13T08:01:50;18.60;;;6.83;;
37309;SDS011;23195;47.744;7.358;2022-11-13T08:04:15;18.10;;;7.97;;
37309;SDS011;23195;47.744;7.358;2022-11-13T08:06:41;13.67;;;6.73;;
37309;SDS011;23195;47.744;7.358;2022-11-13T08:09:07;17.53;;;7.10;;
37309;SDS011;23195;47.744;7.358;2022-11-13T08:11:33;19.97;;;7.00;;
37309;SDS011;23195;47.744;7.358;2022-11-13T08:13:59;19.00;;;7.03;;
37309;SDS011;23195;47.744;7.358;2022-11-13T08:16:25;13.63;;;7.10;;
37309;SDS011;23195;47.744;7.358;2022-11-13T08:18:51;14.13;;;7.10;;
37309;SDS011;23195;47.744;7.358;2022-11-13T08:21:17;16.50;;;6.70;;
37309;SDS011;23195;47.744;7.358;2022-11-13T08:23:45;14.70;;;7.10;;
37309;SDS011;23195;47.744;7.358;2022-11-13T08:26:11;13.30;;;7.17;;
37309;SDS011;23195;47.744;7.358;2022-11-13T08:28:37;14.70;;;6.73;;
37309;SDS011;23195;47.744;7.358;2022-11-13T08:31:03;11.73;;;6.50;;
37309;SDS011;23195;47.744;7.358;2022-11-13T08:33:29;14.77;;;6.80;;
37309;SDS011;23195;47.744;7.358;2022-11-13T08:35:56;12.67;;;6.57;;
37309;SDS011;23195;47.744;7.358;2022-11-13T08:38:23;11.60;;;6.30;;
37309;SDS011;23195;47.744;7.358;2022-11-13T08:41:00;12.63;;;6.50;;
37309;SDS011;23195;47.744;7.358;2022-11-13T08:43:27;12.00;;;6.30;;
37309;SDS011;23195;47.744;7.358;2022-11-13T08:45:53;11.90;;;6.00;;
37309;SDS011;23195;47.744;7.358;2022-11-13T08:48:19;10.77;;;6.40;;
37309;SDS011;23195;47.744;7.358;2022-11-13T08:50:49;13.43;;;6.90;;
37309;SDS011;23195;47.744;7.358;2022-11-13T08:53:19;11.27;;;6.13;;
37309;SDS011;23195;47.744;7.358;2022-11-13T08:55:46;10.47;;;5.60;;
37309;SDS011;23195;47.744;7.358;2022-11-13T08:58:12;12.87;;;6.30;;
37309;SDS011;23195;47.744;7.358;2022-11-13T09:00:38;10.23;;;5.70;;
37309;SDS011;23195;47.744;7.358;2022-11-13T09:03:04;10.93;;;6.23;;
37309;SDS011;23195;47.744;7.358;2022-11-13T09:05:33;10.40;;;5.83;;
37309;SDS011;23195;47.744;7.358;2022-11-13T09:07:59;9.07;;;5.67;;
37309;SDS011;23195;47.744;7.358;2022-11-13T09:10:26;11.67;;;6.70;;
37309;SDS011;23195;47.744;7.358;2022-11-13T09:12:57;9.07;;;5.50;;
37309;SDS011;23195;47.744;7.358;2022-11-13T09:15:26;8.30;;;5.60;;
37309;SDS011;23195;47.744;7.358;2022-11-13T09:17:56;7.87;;;5.03;;
37309;SDS011;23195;47.744;7.358;2022-11-13T09:20:26;9.17;;;4.90;;
37309;SDS011;23195;47.744;7.358;2022-11-13T09:23:00;8.43;;;5.57;;
37309;SDS011;23195;47.744;7.358;2022-11-13T09:25:28;7.83;;;4.43;;
37309;SDS011;23195;47.744;7.358;2022-11-13T09:27:56;7.07;;;4.60;;
37309;SDS011;23195;47.744;7.358;2022-11-13T09:30:24;7.30;;;4.50;;
37309;SDS011;23195;47.744;7.358;2022-11-13T09:32:52;8.80;;;5.33;;
37309;SDS011;23195;47.744;7.358;2022-11-13T09:35:20;10.20;;;4.60;;
37309;SDS011;23195;47.744;7.358;2022-11-13T09:38:02;7.47;;;4.10;;
37309;SDS011;23195;47.744;7.358;2022-11-13T09:40:48;7.43;;;4.70;;
37309;SDS011;23195;47.744;7.358;2022-11-13T09:43:26;7.00;;;4.37;;
37309;SDS011;23195;47.744;7.358;2022-11-13T09:45:55;7.17;;;4.37;;
37309;SDS011;23195;47.744;7.358;2022-11-13T09:48:29;8.60;;;4.63;;
37309;SDS011;23195;47.744;7.358;2022-11-13T09:51:13;8.77;;;5.07;;
37309;SDS011;23195;47.744;7.358;2022-11-13T09:53:43;8.83;;;5.70;;
37309;SDS011;23195;47.744;7.358;2022-11-13T09:56:18;9.47;;;5.20;;
37309;SDS011;23195;47.744;7.358;2022-11-13T10:04:13;6.93;;;4.83;;
37309;SDS011;23195;47.744;7.358;2022-11-13T10:12:29;7.87;;;5.40;;
37309;SDS011;23195;47.744;7.358;2022-11-13T10:14:59;10.43;;;5.00;;
37309;SDS011;23195;47.744;7.358;2022-11-13T10:17:32;5.30;;;3.90;;
37309;SDS011;23195;47.744;7.358;2022-11-13T10:20:06;7.90;;;5.17;;
37309;SDS011;23195;47.744;7.358;2022-11-13T10:25:33;6.87;;;4.77;;
37309;SDS011;23195;47.744;7.358;2022-11-13T10:28:01;8.40;;;5.30;;
37309;SDS011;23195;47.744;7.358;2022-11-13T10:30:52;9.13;;;5.80;;
37309;SDS011;23195;47.744;7.358;2022-11-13T10:33:19;8.60;;;5.57;;
37309;SDS011;23195;47.744;7.358;2022-11-13T10:36:02;10.10;;;5.53;;
37309;SDS011;23195;47.744;7.358;2022-11-13T10:38:52;11.87;;;6.70;;
37309;SDS011;23195;47.744;7.358;2022-11-13T10:41:24;7.80;;;5.20;;
37309;SDS011;23195;47.744;7.358;2022-11-13T10:43:57;10.67;;;6.67;;
37309;SDS011;23195;47.744;7.358;2022-11-13T10:46:29;10.87;;;5.70;;
37309;SDS011;23195;47.744;7.358;2022-11-13T10:48:57;10.70;;;7.00;;
37309;SDS011;23195;47.744;7.358;2022-11-13T10:51:34;10.47;;;7.10;;
37309;SDS011;23195;47.744;7.358;2022-11-13T10:54:09;9.73;;;6.07;;
37309;SDS011;23195;47.744;7.358;2022-11-13T10:56:44;12.20;;;6.93;;
37309;SDS011;23195;47.744;7.358;2022-11-13T10:59:25;8.57;;;5.40;;
37309;SDS011;23195;47.744;7.358;2022-11-13T11:01:51;7.43;;;5.17;;
37309;SDS011;23195;47.744;7.358;2022-11-13T11:04:21;7.93;;;5.83;;
37309;SDS011;23195;47.744;7.358;2022-11-13T11:06:48;10.47;;;6.17;;
37309;SDS011;23195;47.744;7.358;2022-11-13T11:09:22;11.03;;;6.53;;
37309;SDS011;23195;47.744;7.358;2022-11-13T11:20:04;11.57;;;8.37;;
37309;SDS011;23195;47.744;7.358;2022-11-13T11:22:37;9.77;;;6.70;;
37309;SDS011;23195;47.744;7.358;2022-11-13T11:25:08;8.47;;;6.60;;
37309;SDS011;23195;47.744;7.358;2022-11-13T11:27:57;11.67;;;7.27;;
37309;SDS011;23195;47.744;7.358;2022-11-13T11:30:52;11.37;;;7.57;;
37309;SDS011;23195;47.744;7.358;2022-11-13T11:38:51;11.13;;;6.87;;
37309;SDS011;23195;47.744;7.358;2022-11-13T11:41:19;8.13;;;5.80;;
37309;SDS011;23195;47.744;7.358;2022-11-13T11:46:53;10.23;;;6.60;;
37309;SDS011;23195;47.744;7.358;2022-11-13T11:49:20;12.63;;;8.10;;
37309;SDS011;23195;47.744;7.358;2022-11-13T11:54:46;13.17;;;8.93;;
37309;SDS011;23195;47.744;7.358;2022-11-13T11:57:38;11.30;;;7.37;;
37309;SDS011;23195;47.744;7.358;2022-11-13T12:00:32;11.07;;;7.37;;
37309;SDS011;23195;47.744;7.358;2022-11-13T12:05:43;13.53;;;7.60;;
37309;SDS011;23195;47.744;7.358;2022-11-13T12:11:20;12.77;;;8.47;;
37309;SDS011;23195;47.744;7.358;2022-11-13T12:14:11;10.97;;;7.47;;
37309;SDS011;23195;47.744;7.358;2022-11-13T12:17:06;10.57;;;6.77;;
37309;SDS011;23195;47.744;7.358;2022-11-13T12:20:02;10.60;;;7.20;;
37309;SDS011;23195;47.744;7.358;2022-11-13T12:28:59;13.23;;;7.53;;
37309;SDS011;23195;47.744;7.358;2022-11-13T12:34:51;12.27;;;8.30;;
37309;SDS011;23195;47.744;7.358;2022-11-13T12:37:34;19.03;;;12.53;;
37309;SDS011;23195;47.744;7.358;2022-11-13T12:46:11;11.77;;;8.10;;
37309;SDS011;23195;47.744;7.358;2022-11-13T12:48:44;9.47;;;7.20;;
37309;SDS011;23195;47.744;7.358;2022-11-13T12:51:12;10.17;;;7.00;;
37309;SDS011;23195;47.744;7.358;2022-11-13T12:53:56;11.87;;;7.03;;
37309;SDS011;23195;47.744;7.358;2022-11-13T13:01:46;10.00;;;6.93;;
37309;SDS011;23195;47.744;7.358;2022-11-13T13:16:01;10.43;;;7.33;;
37309;SDS011;23195;47.744;7.358;2022-11-13T13:18:29;11.47;;;7.87;;
37309;SDS011;23195;47.744;7.358;2022-11-13T13:21:10;11.87;;;8.03;;
37309;SDS011;23195;47.744;7.358;2022-11-13T13:23:39;11.30;;;7.50;;
37309;SDS011;23195;47.744;7.358;2022-11-13T13:26:20;11.63;;;7.83;;
37309;SDS011;23195;47.744;7.358;2022-11-13T13:36:47;16.10;;;11.73;;
37309;SDS011;23195;47.744;7.358;2022-11-13T13:39:45;13.13;;;9.27;;
37309;SDS011;23195;47.744;7.358;2022-11-13T13:45:17;13.60;;;7.83;;
37309;SDS011;23195;47.744;7.358;2022-11-13T13:47:52;11.27;;;7.30;;
37309;SDS011;23195;47.744;7.358;2022-11-13T13:50:21;10.77;;;7.27;;
37309;SDS011;23195;47.744;7.358;2022-11-13T13:52:51;10.60;;;7.63;;
37309;SDS011;23195;47.744;7.358;2022-11-13T13:58:03;11.30;;;7.83;;
37309;SDS011;23195;47.744;7.358;2022-11-13T14:00:36;11.97;;;7.80;;
37309;SDS011;23195;47.744;7.358;2022-11-13T14:03:02;14.97;;;9.20;;
37309;SDS011;23195;47.744;7.358;2022-11-13T14:05:30;14.13;;;8.80;;
37309;SDS011;23195;47.744;7.358;2022-11-13T14:07:58;15.37;;;9.30;;
37309;SDS011;23195;47.744;7.358;2022-11-13T14:10:27;11.77;;;7.90;;
37309;SDS011;23195;47.744;7.358;2022-11-13T14:12:54;14.10;;;8.90;;
37309;SDS011;23195;47.744;7.358;2022-11-13T14:15:22;14.43;;;8.80;;
37309;SDS011;23195;47.744;7.358;2022-11-13T14:18:12;16.43;;;8.53;;
37309;SDS011;23195;47.744;7.358;2022-11-13T14:23:12;13.07;;;8.80;;
37309;SDS011;23195;47.744;7.358;2022-11-13T14:25:43;15.13;;;9.17;;
37309;SDS011;23195;47.744;7.358;2022-11-13T14:28:18;13.27;;;9.23;;
37309;SDS011;23195;47.744;7.358;2022-11-13T14:30:53;14.00;;;9.13;;
37309;SDS011;23195;47.744;7.358;2022-11-13T14:33:22;19.73;;;11.33;;
37309;SDS011;23195;47.744;7.358;2022-11-13T14:36:11;14.03;;;9.00;;
37309;SDS011;23195;47.744;7.358;2022-11-13T14:38:40;14.27;;;9.23;;
37309;SDS011;23195;47.744;7.358;2022-11-13T14:44:08;13.83;;;9.33;;
37309;SDS011;23195;47.744;7.358;2022-11-13T14:46:36;15.17;;;9.73;;
37309;SDS011;23195;47.744;7.358;2022-11-13T14:49:13;15.57;;;10.13;;
37309;SDS011;23195;47.744;7.358;2022-11-13T14:51:53;16.13;;;9.33;;
37309;SDS011;23195;47.744;7.358;2022-11-13T14:54:31;14.10;;;9.80;;
37309;SDS011;23195;47.744;7.358;2022-11-13T14:57:06;17.93;;;10.00;;
37309;SDS011;23195;47.744;7.358;2022-11-13T14:59:36;16.03;;;10.43;;
37309;SDS011;23195;47.744;7.358;2022-11-13T15:02:03;15.63;;;9.67;;
37309;SDS011;23195;47.744;7.358;2022-11-13T15:04:29;15.20;;;9.50;;
37309;SDS011;23195;47.744;7.358;2022-11-13T15:06:59;15.60;;;10.10;;
37309;SDS011;23195;47.744;7.358;2022-11-13T15:09:26;14.20;;;9.70;;
37309;SDS011;23195;47.744;7.358;2022-11-13T15:11:54;17.00;;;10.40;;
37309;SDS011;23195;47.744;7.358;2022-11-13T15:14:20;16.40;;;10.60;;
37309;SDS011;23195;47.744;7.358;2022-11-13T15:16:47;16.57;;;10.43;;
37309;SDS011;23195;47.744;7.358;2022-11-13T15:19:24;16.60;;;10.80;;
37309;SDS011;23195;47.744;7.358;2022-11-13T15:21:59;14.67;;;9.60;;
37309;SDS011;23195;47.744;7.358;2022-11-13T15:24:25;13.23;;;9.03;;
37309;SDS011;23195;47.744;7.358;2022-11-13T15:26:52;13.73;;;9.33;;
37309;SDS011;23195;47.744;7.358;2022-11-13T15:29:17;14.27;;;9.23;;
37309;SDS011;23195;47.744;7.358;2022-11-13T15:31:44;14.80;;;8.97;;
37309;SDS011;23195;47.744;7.358;2022-11-13T15:34:11;14.87;;;9.37;;
37309;SDS011;23195;47.744;7.358;2022-11-13T15:36:38;14.97;;;9.70;;
37309;SDS011;23195;47.744;7.358;2022-11-13T15:39:07;14.73;;;9.80;;
37309;SDS011;23195;47.744;7.358;2022-11-13T15:41:33;15.77;;;10.13;;
37309;SDS011;23195;47.744;7.358;2022-11-13T15:44:00;15.97;;;10.87;;
37309;SDS011;23195;47.744;7.358;2022-11-13T15:46:30;18.37;;;11.20;;
37309;SDS011;23195;47.744;7.358;2022-11-13T15:48:56;15.97;;;11.03;;
37309;SDS011;23195;47.744;7.358;2022-11-13T15:56:37;35.73;;;18.63;;
37309;SDS011;23195;47.744;7.358;2022-11-13T15:59:03;20.47;;;12.80;;
37309;SDS011;23195;47.744;7.358;2022-11-13T16:01:28;20.27;;;13.13;;
37309;SDS011;23195;47.744;7.358;2022-11-13T16:03:55;18.97;;;11.43;;
37309;SDS011;23195;47.744;7.358;2022-11-13T16:06:22;21.57;;;12.90;;
37309;SDS011;23195;47.744;7.358;2022-11-13T16:08:48;18.87;;;12.77;;
37309;SDS011;23195;47.744;7.358;2022-11-13T16:11:18;20.80;;;12.73;;
37309;SDS011;23195;47.744;7.358;2022-11-13T16:13:44;20.23;;;13.70;;
37309;SDS011;23195;47.744;7.358;2022-11-13T16:18:39;21.87;;;13.77;;
37309;SDS011;23195;47.744;7.358;2022-11-13T16:21:07;21.70;;;13.70;;
37309;SDS011;23195;47.744;7.358;2022-11-13T16:23:35;26.57;;;14.20;;
37309;SDS011;23195;47.744;7.358;2022-11-13T16:26:01;23.43;;;14.90;;
37309;SDS011;23195;47.744;7.358;2022-11-13T16:28:28;25.03;;;15.83;;
37309;SDS011;23195;47.744;7.358;2022-11-13T16:30:54;19.53;;;12.27;;